sensor_id;sensor_type;location;lat;lon;timestamp;pressure;altitude;pressure_sealevel;temperature;humidity
12219;BME280;6172;42.646;23.344;2024-02-16T00:00:07;95162.66;;;1.27;100.00
12219;BME280;6172;42.646;23.344;2024-02-16T00:02:38;95163.69;;;1.38;100.00
12219;BME280;6172;42.646;23.344;2024-02-16T00:05:07;95161.56;;;1.43;100.00
12219;BME280;6172;42.646;23.344;2024-02-16T00:07:33;95167.69;;;1.28;100.00
12219;BME280;6172;42.646;23.344;2024-02-16T00:10:00;95168.63;;;1.20;100.00
12219;BME280;6172;42.646;23.344;2024-02-16T00:12:29;95165.97;;;1.08;100.00
12219;BME280;6172;42.646;23.344;2024-02-16T00:14:57;95165.75;;;1.13;100.00
12219;BME280;6172;42.646;23.344;2024-02-16T00:17:25;95166.34;;;1.22;100.00
12219;BME280;6172;42.646;23.344;2024-02-16T00:19:54;95167.34;;;1.30;100.00
12219;BME280;6172;42.646;23.344;2024-02-16T00:22:21;95167.94;;;1.23;100.00
12219;BME280;6172;42.646;23.344;2024-02-16T00:24:48;95157.09;;;1.20;100.00
12219;BME280;6172;42.646;23.344;2024-02-16T00:27:15;95172.41;;;1.19;100.00
12219;BME280;6172;42.646;23.344;2024-02-16T00:29:43;95175.78;;;1.16;100.00
12219;BME280;6172;42.646;23.344;2024-02-16T00:32:11;95174.75;;;1.21;100.00
12219;BME280;6172;42.646;23.344;2024-02-16T00:34:38;95174.22;;;1.15;100.00
12219;BME280;6172;42.646;23.344;2024-02-16T00:37:08;95171.00;;;1.10;100.00
12219;BME280;6172;42.646;23.344;2024-02-16T00:39:37;95167.63;;;1.13;100.00
12219;BME280;6172;42.646;23.344;2024-02-16T00:42:06;95160.72;;;1.12;100.00
12219;BME280;6172;42.646;23.344;2024-02-16T00:44:33;95174.00;;;1.20;100.00
12219;BME280;6172;42.646;23.344;2024-02-16T00:47:00;95164.34;;;1.19;100.00
12219;BME280;6172;42.646;23.344;2024-02-16T00:49:27;95167.16;;;1.23;100.00
12219;BME280;6172;42.646;23.344;2024-02-16T00:51:54;95175.16;;;1.07;100.00
12219;BME280;6172;42.646;23.344;2024-02-16T00:54:22;95167.53;;;1.09;100.00
12219;BME280;6172;42.646;23.344;2024-02-16T00:56:49;95172.81;;;1.33;100.00
12219;BME280;6172;42.646;23.344;2024-02-16T00:59:17;95177.00;;;1.19;100.00
12219;BME280;6172;42.646;23.344;2024-02-16T01:01:45;95172.06;;;1.21;100.00
12219;BME280;6172;42.646;23.344;2024-02-16T01:04:12;95178.41;;;1.28;100.00
12219;BME280;6172;42.646;23.344;2024-02-16T01:06:39;95173.34;;;1.11;100.00
12219;BME280;6172;42.646;23.344;2024-02-16T01:09:06;95180.63;;;1.11;100.00
12219;BME280;6172;42.646;23.344;2024-02-16T01:11:35;95165.72;;;0.86;100.00
12219;BME280;6172;42.646;23.344;2024-02-16T01:14:02;95174.88;;;0.84;100.00
12219;BME280;6172;42.646;23.344;2024-02-16T01:16:29;95161.19;;;0.74;100.00
12219;BME280;6172;42.646;23.344;2024-02-16T01:18:56;95169.38;;;0.65;100.00
12219;BME280;6172;42.646;23.344;2024-02-16T01:21:23;95164.59;;;0.47;100.00
12219;BME280;6172;42.646;23.344;2024-02-16T01:23:50;95160.53;;;0.53;100.00
12219;BME280;6172;42.646;23.344;2024-02-16T01:26:17;95168.59;;;0.53;100.00
12219;BME280;6172;42.646;23.344;2024-02-16T01:28:46;95166.81;;;0.57;100.00
12219;BME280;6172;42.646;23.344;2024-02-16T01:31:14;95160.34;;;0.46;100.00
12219;BME280;6172;42.646;23.344;2024-02-16T01:33:41;95163.88;;;0.62;100.00
12219;BME280;6172;42.646;23.344;2024-02-16T01:36:08;95157.53;;;0.54;100.00
12219;BME280;6172;42.646;23.344;2024-02-16T01:38:36;95165.69;;;0.46;100.00
12219;BME280;6172;42.646;23.344;2024-02-16T01:41:03;95155.84;;;0.50;100.00
12219;BME280;6172;42.646;23.344;2024-02-16T01:43:30;95164.34;;;0.52;100.00
12219;BME280;6172;42.646;23.344;2024-02-16T01:45:59;95149.59;;;0.58;100.00
12219;BME280;6172;42.646;23.344;2024-02-16T01:48:26;95154.03;;;0.66;100.00
12219;BME280;6172;42.646;23.344;2024-02-16T01:50:53;95149.78;;;0.65;100.00
12219;BME280;6172;42.646;23.344;2024-02-16T01:53:21;95151.34;;;0.66;100.00
12219;BME280;6172;42.646;23.344;2024-02-16T01:55:49;95148.97;;;0.37;100.00
12219;BME280;6172;42.646;23.344;2024-02-16T01:58:17;95135.09;;;0.47;100.00
12219;BME280;6172;42.646;23.344;2024-02-16T02:00:44;95147.59;;;0.43;100.00
12219;BME280;6172;42.646;23.344;2024-02-16T02:03:12;95148.41;;;0.31;100.00
12219;BME280;6172;42.646;23.344;2024-02-16T02:05:45;95146.63;;;0.23;100.00
12219;BME280;6172;42.646;23.344;2024-02-16T02:08:13;95146.63;;;0.35;100.00
12219;BME280;6172;42.646;23.344;2024-02-16T02:10:40;95150.31;;;0.31;100.00
12219;BME280;6172;42.646;23.344;2024-02-16T02:13:07;95142.28;;;0.31;100.00
12219;BME280;6172;42.646;23.344;2024-02-16T02:15:34;95150.06;;;0.36;100.00
12219;BME280;6172;42.646;23.344;2024-02-16T02:18:02;95142.16;;;0.39;100.00
12219;BME280;6172;42.646;23.344;2024-02-16T02:20:31;95139.22;;;0.44;100.00
12219;BME280;6172;42.646;23.344;2024-02-16T02:23:00;95151.75;;;0.52;100.00
12219;BME280;6172;42.646;23.344;2024-02-16T02:25:29;95144.38;;;0.49;100.00
12219;BME280;6172;42.646;23.344;2024-02-16T02:27:56;95145.03;;;0.58;100.00
12219;BME280;6172;42.646;23.344;2024-02-16T02:30:23;95148.00;;;0.69;100.00
12219;BME280;6172;42.646;23.344;2024-02-16T02:32:50;95145.31;;;0.69;100.00
12219;BME280;6172;42.646;23.344;2024-02-16T02:35:18;95152.34;;;0.73;100.00
12219;BME280;6172;42.646;23.344;2024-02-16T02:37:45;95156.69;;;0.78;100.00
12219;BME280;6172;42.646;23.344;2024-02-16T02:40:14;95153.06;;;0.86;100.00
12219;BME280;6172;42.646;23.344;2024-02-16T02:42:41;95158.03;;;0.72;100.00
12219;BME280;6172;42.646;23.344;2024-02-16T02:45:08;95148.44;;;0.71;100.00
12219;BME280;6172;42.646;23.344;2024-02-16T02:47:35;95148.66;;;0.78;100.00
12219;BME280;6172;42.646;23.344;2024-02-16T02:50:02;95152.25;;;0.70;100.00
12219;BME280;6172;42.646;23.344;2024-02-16T02:52:30;95140.88;;;0.61;100.00
12219;BME280;6172;42.646;23.344;2024-02-16T02:54:57;95135.03;;;0.71;100.00
12219;BME280;6172;42.646;23.344;2024-02-16T02:57:25;95141.63;;;0.73;100.00
12219;BME280;6172;42.646;23.344;2024-02-16T02:59:53;95149.13;;;0.68;100.00
12219;BME280;6172;42.646;23.344;2024-02-16T03:02:29;95146.91;;;0.58;100.00
12219;BME280;6172;42.646;23.344;2024-02-16T03:04:56;95149.78;;;0.65;100.00
12219;BME280;6172;42.646;23.344;2024-02-16T03:07:25;95148.25;;;0.64;100.00
12219;BME280;6172;42.646;23.344;2024-02-16T03:09:52;95146.44;;;0.68;100.00
12219;BME280;6172;42.646;23.344;2024-02-16T03:12:19;95145.66;;;0.67;100.00
12219;BME280;6172;42.646;23.344;2024-02-16T03:14:49;95155.63;;;0.67;100.00
12219;BME280;6172;42.646;23.344;2024-02-16T03:17:16;95139.28;;;0.60;100.00
12219;BME280;6172;42.646;23.344;2024-02-16T03:19:43;95138.72;;;0.66;100.00
12219;BME280;6172;42.646;23.344;2024-02-16T03:22:10;95142.22;;;0.67;100.00
12219;BME280;6172;42.646;23.344;2024-02-16T03:24:38;95147.22;;;0.68;100.00
12219;BME280;6172;42.646;23.344;2024-02-16T03:27:05;95142.22;;;0.55;100.00
12219;BME280;6172;42.646;23.344;2024-02-16T03:29:32;95153.88;;;0.47;100.00
12219;BME280;6172;42.646;23.344;2024-02-16T03:32:01;95156.56;;;0.35;100.00
12219;BME280;6172;42.646;23.344;2024-02-16T03:34:28;95162.25;;;0.33;100.00
12219;BME280;6172;42.646;23.344;2024-02-16T03:36:56;95147.06;;;0.37;100.00
12219;BME280;6172;42.646;23.344;2024-02-16T03:39:24;95145.47;;;0.48;100.00
12219;BME280;6172;42.646;23.344;2024-02-16T03:41:51;95144.22;;;0.58;100.00
12219;BME280;6172;42.646;23.344;2024-02-16T03:44:18;95145.38;;;0.57;100.00
12219;BME280;6172;42.646;23.344;2024-02-16T03:46:45;95146.00;;;0.66;100.00
12219;BME280;6172;42.646;23.344;2024-02-16T03:49:13;95153.13;;;0.74;100.00
12219;BME280;6172;42.646;23.344;2024-02-16T03:51:41;95145.38;;;0.57;100.00
12219;BME280;6172;42.646;23.344;2024-02-16T03:54:08;95157.09;;;0.52;100.00
12219;BME280;6172;42.646;23.344;2024-02-16T03:56:35;95142.69;;;0.57;100.00
12219;BME280;6172;42.646;23.344;2024-02-16T03:59:02;95142.88;;;0.64;100.00
12219;BME280;6172;42.646;23.344;2024-02-16T04:01:31;95150.00;;;0.72;100.00
12219;BME280;6172;42.646;23.344;2024-02-16T04:03:58;95150.34;;;0.70;100.00
12219;BME280;6172;42.646;23.344;2024-02-16T04:06:26;95141.31;;;0.63;100.00
12219;BME280;6172;42.646;23.344;2024-02-16T04:08:53;95148.25;;;0.64;100.00
12219;BME280;6172;42.646;23.344;2024-02-16T04:11:21;95144.56;;;0.68;100.00
12219;BME280;6172;42.646;23.344;2024-02-16T04:13:48;95149.78;;;0.65;100.00
12219;BME280;6172;42.646;23.344;2024-02-16T04:16:15;95160.59;;;0.29;100.00
12219;BME280;6172;42.646;23.344;2024-02-16T04:18:42;95143.31;;;0.02;100.00
12219;BME280;6172;42.646;23.344;2024-02-16T04:21:09;95146.31;;;0.25;100.00
12219;BME280;6172;42.646;23.344;2024-02-16T04:23:38;95138.47;;;0.20;100.00
12219;BME280;6172;42.646;23.344;2024-02-16T04:26:05;95136.59;;;0.20;100.00
12219;BME280;6172;42.646;23.344;2024-02-16T04:28:32;95140.06;;;0.09;100.00
12219;BME280;6172;42.646;23.344;2024-02-16T04:30:59;95154.81;;;-0.09;100.00
12219;BME280;6172;42.646;23.344;2024-02-16T04:33:26;95153.09;;;-0.38;100.00
12219;BME280;6172;42.646;23.344;2024-02-16T04:35:53;95150.63;;;-0.55;100.00
12219;BME280;6172;42.646;23.344;2024-02-16T04:38:20;95154.44;;;-0.32;100.00
12219;BME280;6172;42.646;23.344;2024-02-16T04:40:49;95152.56;;;-0.31;100.00
12219;BME280;6172;42.646;23.344;2024-02-16T04:43:16;95154.78;;;-0.21;100.00
12219;BME280;6172;42.646;23.344;2024-02-16T04:45:44;95153.56;;;-0.12;100.00
12219;BME280;6172;42.646;23.344;2024-02-16T04:48:11;95158.47;;;-0.02;100.00
12219;BME280;6172;42.646;23.344;2024-02-16T04:50:38;95161.41;;;-0.07;100.00
12219;BME280;6172;42.646;23.344;2024-02-16T04:53:05;95153.22;;;-0.10;100.00
12219;BME280;6172;42.646;23.344;2024-02-16T04:55:32;95150.34;;;-0.05;100.00
12219;BME280;6172;42.646;23.344;2024-02-16T04:58:00;95150.66;;;0.05;100.00
12219;BME280;6172;42.646;23.344;2024-02-16T05:00:30;95165.06;;;0.13;100.00
12219;BME280;6172;42.646;23.344;2024-02-16T05:02:57;95168.19;;;0.15;100.00
12219;BME280;6172;42.646;23.344;2024-02-16T05:05:24;95172.88;;;0.06;100.00
12219;BME280;6172;42.646;23.344;2024-02-16T05:07:51;95165.41;;;0.11;100.00
12219;BME280;6172;42.646;23.344;2024-02-16T05:10:18;95169.41;;;0.05;100.00
12219;BME280;6172;42.646;23.344;2024-02-16T05:12:46;95167.75;;;0.13;100.00
12219;BME280;6172;42.646;23.344;2024-02-16T05:15:14;95169.31;;;0.02;100.00
12219;BME280;6172;42.646;23.344;2024-02-16T05:17:42;95178.34;;;-0.27;100.00
12219;BME280;6172;42.646;23.344;2024-02-16T05:20:10;95192.03;;;-0.40;100.00
12219;BME280;6172;42.646;23.344;2024-02-16T05:22:41;95192.22;;;-0.57;100.00
12219;BME280;6172;42.646;23.344;2024-02-16T05:25:09;95186.88;;;-0.57;100.00
12219;BME280;6172;42.646;23.344;2024-02-16T05:27:37;95187.53;;;-0.60;100.00
12219;BME280;6172;42.646;23.344;2024-02-16T05:30:05;95202.56;;;-0.68;100.00
12219;BME280;6172;42.646;23.344;2024-02-16T05:32:36;95202.63;;;-0.76;100.00
12219;BME280;6172;42.646;23.344;2024-02-16T05:35:06;95202.97;;;-0.78;100.00
12219;BME280;6172;42.646;23.344;2024-02-16T05:37:37;95208.28;;;-0.90;100.00
12219;BME280;6172;42.646;23.344;2024-02-16T05:40:07;95209.91;;;-0.77;100.00
12219;BME280;6172;42.646;23.344;2024-02-16T05:42:46;95206.03;;;-0.67;100.00
12219;BME280;6172;42.646;23.344;2024-02-16T05:45:14;95202.78;;;-0.61;100.00
12219;BME280;6172;42.646;23.344;2024-02-16T05:47:47;95203.59;;;-0.60;100.00
12219;BME280;6172;42.646;23.344;2024-02-16T05:50:20;95202.63;;;-0.44;100.00
12219;BME280;6172;42.646;23.344;2024-02-16T05:52:48;95202.38;;;-0.63;100.00
12219;BME280;6172;42.646;23.344;2024-02-16T05:55:15;95214.53;;;-0.53;100.00
12219;BME280;6172;42.646;23.344;2024-02-16T05:57:44;95207.88;;;-0.47;100.00
12219;BME280;6172;42.646;23.344;2024-02-16T06:00:12;95220.03;;;-0.50;100.00
12219;BME280;6172;42.646;23.344;2024-02-16T06:02:39;95213.50;;;-0.28;100.00
12219;BME280;6172;42.646;23.344;2024-02-16T06:05:09;95206.09;;;-0.43;100.00
12219;BME280;6172;42.646;23.344;2024-02-16T06:07:36;95221.81;;;-0.42;100.00
12219;BME280;6172;42.646;23.344;2024-02-16T06:10:04;95214.81;;;-0.34;100.00
12219;BME280;6172;42.646;23.344;2024-02-16T06:12:33;95216.84;;;-0.31;100.00
12219;BME280;6172;42.646;23.344;2024-02-16T06:15:00;95223.53;;;-0.25;100.00
12219;BME280;6172;42.646;23.344;2024-02-16T06:17:27;95226.31;;;-0.22;100.00
12219;BME280;6172;42.646;23.344;2024-02-16T06:19:54;95222.00;;;-0.14;100.00
12219;BME280;6172;42.646;23.344;2024-02-16T06:22:23;95215.75;;;-0.18;100.00
12219;BME280;6172;42.646;23.344;2024-02-16T06:24:51;95234.84;;;0.04;100.00
12219;BME280;6172;42.646;23.344;2024-02-16T06:27:18;95222.44;;;-0.00;100.00
12219;BME280;6172;42.646;23.344;2024-02-16T06:29:45;95235.63;;;0.17;100.00
12219;BME280;6172;42.646;23.344;2024-02-16T06:32:12;95225.81;;;0.09;100.00
12219;BME280;6172;42.646;23.344;2024-02-16T06:34:39;95224.72;;;0.22;100.00
12219;BME280;6172;42.646;23.344;2024-02-16T06:37:06;95233.84;;;0.33;100.00
12219;BME280;6172;42.646;23.344;2024-02-16T06:39:35;95228.50;;;0.45;100.00
12219;BME280;6172;42.646;23.344;2024-02-16T06:42:02;95225.47;;;1.10;100.00
12219;BME280;6172;42.646;23.344;2024-02-16T06:44:29;95219.00;;;2.28;100.00
12219;BME280;6172;42.646;23.344;2024-02-16T06:46:56;95200.50;;;3.30;100.00
12219;BME280;6172;42.646;23.344;2024-02-16T06:49:23;95196.16;;;4.28;100.00
12219;BME280;6172;42.646;23.344;2024-02-16T06:51:50;95201.06;;;4.97;100.00
12219;BME280;6172;42.646;23.344;2024-02-16T06:54:20;95202.56;;;4.95;100.00
12219;BME280;6172;42.646;23.344;2024-02-16T06:56:49;95188.63;;;4.93;100.00
12219;BME280;6172;42.646;23.344;2024-02-16T06:59:17;95189.34;;;4.86;100.00
12219;BME280;6172;42.646;23.344;2024-02-16T07:01:45;95190.16;;;5.53;100.00
12219;BME280;6172;42.646;23.344;2024-02-16T07:04:12;95201.50;;;6.89;100.00
12219;BME280;6172;42.646;23.344;2024-02-16T07:06:39;95209.16;;;6.33;95.47
12219;BME280;6172;42.646;23.344;2024-02-16T07:09:06;95199.38;;;6.65;90.06
12219;BME280;6172;42.646;23.344;2024-02-16T07:11:33;95191.59;;;7.21;87.91
12219;BME280;6172;42.646;23.344;2024-02-16T07:14:02;95198.38;;;7.55;78.80
12219;BME280;6172;42.646;23.344;2024-02-16T07:16:32;95205.31;;;7.53;77.92
12219;BME280;6172;42.646;23.344;2024-02-16T07:18:59;95189.56;;;7.86;75.07
12219;BME280;6172;42.646;23.344;2024-02-16T07:21:26;95193.81;;;7.94;71.22
12219;BME280;6172;42.646;23.344;2024-02-16T07:23:53;95189.63;;;8.22;70.94
12219;BME280;6172;42.646;23.344;2024-02-16T07:26:20;95185.69;;;7.98;69.99
12219;BME280;6172;42.646;23.344;2024-02-16T07:28:47;95181.84;;;8.09;67.94
12219;BME280;6172;42.646;23.344;2024-02-16T07:31:15;95182.25;;;8.33;65.60
12219;BME280;6172;42.646;23.344;2024-02-16T07:33:43;95186.50;;;8.13;64.30
12219;BME280;6172;42.646;23.344;2024-02-16T07:36:10;95195.81;;;8.22;64.26
12219;BME280;6172;42.646;23.344;2024-02-16T07:38:39;95194.25;;;8.07;63.84
12219;BME280;6172;42.646;23.344;2024-02-16T07:41:09;95195.44;;;8.24;63.68
12219;BME280;6172;42.646;23.344;2024-02-16T07:43:36;95189.66;;;8.50;61.30
12219;BME280;6172;42.646;23.344;2024-02-16T07:46:04;95193.13;;;8.26;61.64
12219;BME280;6172;42.646;23.344;2024-02-16T07:48:32;95198.91;;;8.13;63.06
12219;BME280;6172;42.646;23.344;2024-02-16T07:51:00;95191.22;;;8.47;62.84
12219;BME280;6172;42.646;23.344;2024-02-16T07:53:28;95186.53;;;8.97;60.76
12219;BME280;6172;42.646;23.344;2024-02-16T07:55:55;95197.81;;;8.71;60.25
12219;BME280;6172;42.646;23.344;2024-02-16T07:58:24;95187.59;;;7.83;63.25
12219;BME280;6172;42.646;23.344;2024-02-16T08:00:51;95194.97;;;7.86;66.22
12219;BME280;6172;42.646;23.344;2024-02-16T08:03:19;95187.34;;;8.41;64.58
12219;BME280;6172;42.646;23.344;2024-02-16T08:05:48;95190.00;;;9.11;61.88
12219;BME280;6172;42.646;23.344;2024-02-16T08:08:15;95202.06;;;8.93;62.52
12219;BME280;6172;42.646;23.344;2024-02-16T08:10:43;95195.88;;;8.78;62.55
12219;BME280;6172;42.646;23.344;2024-02-16T08:13:10;95193.53;;;9.05;61.38
12219;BME280;6172;42.646;23.344;2024-02-16T08:15:37;95191.09;;;9.42;59.13
12219;BME280;6172;42.646;23.344;2024-02-16T08:18:04;95190.41;;;9.06;58.89
12219;BME280;6172;42.646;23.344;2024-02-16T08:20:32;95197.28;;;9.49;58.06
12219;BME280;6172;42.646;23.344;2024-02-16T08:23:02;95191.94;;;10.14;56.87
12219;BME280;6172;42.646;23.344;2024-02-16T08:25:29;95180.22;;;9.42;57.22
12219;BME280;6172;42.646;23.344;2024-02-16T08:27:58;95181.66;;;9.71;56.56
12219;BME280;6172;42.646;23.344;2024-02-16T08:30:25;95197.59;;;9.72;56.48
12219;BME280;6172;42.646;23.344;2024-02-16T08:32:53;95198.38;;;9.69;56.70
12219;BME280;6172;42.646;23.344;2024-02-16T08:35:20;95196.41;;;9.70;56.66
12219;BME280;6172;42.646;23.344;2024-02-16T08:37:54;95189.84;;;9.57;56.43
12219;BME280;6172;42.646;23.344;2024-02-16T08:40:32;95183.63;;;9.60;57.80
12219;BME280;6172;42.646;23.344;2024-02-16T08:42:59;95187.84;;;9.75;55.52
12219;BME280;6172;42.646;23.344;2024-02-16T08:45:28;95198.50;;;10.20;54.18
12219;BME280;6172;42.646;23.344;2024-02-16T08:47:56;95193.84;;;10.21;53.64
12219;BME280;6172;42.646;23.344;2024-02-16T08:50:23;95185.47;;;9.84;53.90
12219;BME280;6172;42.646;23.344;2024-02-16T08:52:50;95193.84;;;10.21;53.89
12219;BME280;6172;42.646;23.344;2024-02-16T08:55:17;95193.22;;;9.96;52.75
12219;BME280;6172;42.646;23.344;2024-02-16T08:57:46;95204.97;;;9.72;53.37
12219;BME280;6172;42.646;23.344;2024-02-16T09:00:14;95195.44;;;10.15;52.92
12219;BME280;6172;42.646;23.344;2024-02-16T09:02:42;95203.16;;;10.23;52.62
12219;BME280;6172;42.646;23.344;2024-02-16T09:05:10;95188.53;;;10.58;52.08
12219;BME280;6172;42.646;23.344;2024-02-16T09:07:37;95197.16;;;10.97;51.74
12219;BME280;6172;42.646;23.344;2024-02-16T09:10:05;95186.84;;;11.15;50.69
12219;BME280;6172;42.646;23.344;2024-02-16T09:12:33;95193.91;;;10.69;50.67
12219;BME280;6172;42.646;23.344;2024-02-16T09:15:01;95202.28;;;10.88;50.19
12219;BME280;6172;42.646;23.344;2024-02-16T09:17:29;95198.69;;;10.98;49.30
12219;BME280;6172;42.646;23.344;2024-02-16T09:19:56;95210.66;;;11.15;49.53
12219;BME280;6172;42.646;23.344;2024-02-16T09:22:23;95211.88;;;11.47;49.04
12219;BME280;6172;42.646;23.344;2024-02-16T09:24:50;95209.13;;;11.10;48.50
12219;BME280;6172;42.646;23.344;2024-02-16T09:27:17;95205.44;;;11.64;48.20
12219;BME280;6172;42.646;23.344;2024-02-16T09:29:45;95200.41;;;11.93;46.85
12219;BME280;6172;42.646;23.344;2024-02-16T09:32:13;95209.22;;;11.74;46.80
12219;BME280;6172;42.646;23.344;2024-02-16T09:34:41;95198.47;;;11.93;46.25
12219;BME280;6172;42.646;23.344;2024-02-16T09:37:08;95198.66;;;12.09;46.46
12219;BME280;6172;42.646;23.344;2024-02-16T09:39:37;95204.03;;;11.86;46.01
12219;BME280;6172;42.646;23.344;2024-02-16T09:42:04;95196.03;;;11.35;46.90
12219;BME280;6172;42.646;23.344;2024-02-16T09:44:32;95190.25;;;11.63;46.51
12219;BME280;6172;42.646;23.344;2024-02-16T09:47:02;95197.47;;;12.10;45.91
12219;BME280;6172;42.646;23.344;2024-02-16T09:49:32;95206.22;;;11.28;46.69
12219;BME280;6172;42.646;23.344;2024-02-16T09:51:59;95195.56;;;11.77;46.62
12219;BME280;6172;42.646;23.344;2024-02-16T09:54:31;95197.50;;;11.43;46.70
12219;BME280;6172;42.646;23.344;2024-02-16T09:57:00;95194.00;;;11.76;46.65
12219;BME280;6172;42.646;23.344;2024-02-16T09:59:27;95190.72;;;11.88;46.63
12219;BME280;6172;42.646;23.344;2024-02-16T10:01:59;95190.00;;;11.84;46.26
12219;BME280;6172;42.646;23.344;2024-02-16T10:04:27;95192.72;;;10.70;49.22
12219;BME280;6172;42.646;23.344;2024-02-16T10:06:58;95172.06;;;11.53;47.03
12219;BME280;6172;42.646;23.344;2024-02-16T10:09:26;95171.06;;;11.70;47.16
12219;BME280;6172;42.646;23.344;2024-02-16T10:11:56;95158.41;;;11.53;46.56
12219;BME280;6172;42.646;23.344;2024-02-16T10:14:23;95180.06;;;11.67;46.68
12219;BME280;6172;42.646;23.344;2024-02-16T10:17:00;95170.31;;;9.83;49.65
12219;BME280;6172;42.646;23.344;2024-02-16T10:19:28;95167.09;;;10.60;49.79
12219;BME280;6172;42.646;23.344;2024-02-16T10:22:07;95168.38;;;10.49;48.83
12219;BME280;6172;42.646;23.344;2024-02-16T10:24:35;95167.00;;;9.40;50.54
12219;BME280;6172;42.646;23.344;2024-02-16T10:27:05;95160.50;;;10.03;50.17
12219;BME280;6172;42.646;23.344;2024-02-16T10:29:34;95161.56;;;11.11;47.81
12219;BME280;6172;42.646;23.344;2024-02-16T10:32:01;95158.09;;;11.48;46.50
12219;BME280;6172;42.646;23.344;2024-02-16T10:34:29;95152.13;;;11.56;45.92
12219;BME280;6172;42.646;23.344;2024-02-16T10:36:59;95151.47;;;11.45;46.12
12219;BME280;6172;42.646;23.344;2024-02-16T10:39:30;95145.88;;;11.56;45.69
12219;BME280;6172;42.646;23.344;2024-02-16T10:41:58;95145.81;;;12.19;44.48
12219;BME280;6172;42.646;23.344;2024-02-16T10:44:27;95139.09;;;11.97;44.42
12219;BME280;6172;42.646;23.344;2024-02-16T10:46:55;95137.50;;;12.26;44.39
12219;BME280;6172;42.646;23.344;2024-02-16T10:49:23;95136.63;;;12.33;43.62
12219;BME280;6172;42.646;23.344;2024-02-16T10:51:53;95133.53;;;13.04;42.30
12219;BME280;6172;42.646;23.344;2024-02-16T10:54:25;95130.72;;;13.07;42.50
12219;BME280;6172;42.646;23.344;2024-02-16T10:56:55;95128.19;;;12.97;41.92
12219;BME280;6172;42.646;23.344;2024-02-16T10:59:22;95130.75;;;12.61;42.79
12219;BME280;6172;42.646;23.344;2024-02-16T11:01:59;95126.00;;;12.65;42.22
12219;BME280;6172;42.646;23.344;2024-02-16T11:04:36;95127.34;;;12.77;41.87
12219;BME280;6172;42.646;23.344;2024-02-16T11:07:10;95121.34;;;12.85;42.30
12219;BME280;6172;42.646;23.344;2024-02-16T11:09:39;95127.00;;;12.74;42.99
12219;BME280;6172;42.646;23.344;2024-02-16T11:12:12;95123.34;;;13.04;42.27
12219;BME280;6172;42.646;23.344;2024-02-16T11:14:41;95119.41;;;12.62;42.65
12219;BME280;6172;42.646;23.344;2024-02-16T11:17:10;95117.19;;;13.00;41.91
12219;BME280;6172;42.646;23.344;2024-02-16T11:19:41;95103.88;;;13.41;40.75
12219;BME280;6172;42.646;23.344;2024-02-16T11:22:08;95105.75;;;13.05;40.91
12219;BME280;6172;42.646;23.344;2024-02-16T11:24:37;95106.81;;;12.68;41.69
12219;BME280;6172;42.646;23.344;2024-02-16T11:27:07;95115.69;;;10.99;45.77
12219;BME280;6172;42.646;23.344;2024-02-16T11:29:36;95106.78;;;11.62;45.05
12219;BME280;6172;42.646;23.344;2024-02-16T11:32:05;95098.13;;;12.24;43.86
12219;BME280;6172;42.646;23.344;2024-02-16T11:34:33;95105.03;;;12.32;43.47
12219;BME280;6172;42.646;23.344;2024-02-16T11:37:04;95092.13;;;12.32;43.26
12219;BME280;6172;42.646;23.344;2024-02-16T11:39:32;95099.50;;;12.09;43.58
12219;BME280;6172;42.646;23.344;2024-02-16T11:42:02;95106.13;;;11.55;44.78
12219;BME280;6172;42.646;23.344;2024-02-16T11:44:30;95106.38;;;11.34;45.63
12219;BME280;6172;42.646;23.344;2024-02-16T11:47:00;95104.19;;;10.40;48.15
12219;BME280;6172;42.646;23.344;2024-02-16T11:49:28;95097.38;;;11.03;47.24
12219;BME280;6172;42.646;23.344;2024-02-16T11:51:56;95094.44;;;11.54;46.28
12219;BME280;6172;42.646;23.344;2024-02-16T11:54:23;95091.97;;;11.90;45.42
12219;BME280;6172;42.646;23.344;2024-02-16T11:56:51;95091.81;;;11.44;45.39
12219;BME280;6172;42.646;23.344;2024-02-16T11:59:19;95090.59;;;11.15;47.01
12219;BME280;6172;42.646;23.344;2024-02-16T12:01:51;95083.78;;;11.90;45.80
12219;BME280;6172;42.646;23.344;2024-02-16T12:04:24;95078.31;;;11.90;45.52
12219;BME280;6172;42.646;23.344;2024-02-16T12:06:52;95070.69;;;12.31;44.85
12219;BME280;6172;42.646;23.344;2024-02-16T12:09:20;95075.94;;;12.18;44.61
12219;BME280;6172;42.646;23.344;2024-02-16T12:11:48;95078.59;;;11.72;45.11
12219;BME280;6172;42.646;23.344;2024-02-16T12:14:16;95071.03;;;11.83;45.32
12219;BME280;6172;42.646;23.344;2024-02-16T12:16:48;95069.13;;;11.17;46.01
12219;BME280;6172;42.646;23.344;2024-02-16T12:19:18;95075.16;;;11.01;47.89
12219;BME280;6172;42.646;23.344;2024-02-16T12:22:16;95059.41;;;11.49;51.66
12219;BME280;6172;42.646;23.344;2024-02-16T12:24:56;95060.28;;;12.45;50.22
12219;BME280;6172;42.646;23.344;2024-02-16T12:28:02;95054.06;;;12.88;48.20
12219;BME280;6172;42.646;23.344;2024-02-16T12:30:57;95064.72;;;12.62;45.26
12219;BME280;6172;42.646;23.344;2024-02-16T12:33:31;95065.13;;;12.34;45.22
12219;BME280;6172;42.646;23.344;2024-02-16T12:36:06;95049.41;;;12.19;45.37
12219;BME280;6172;42.646;23.344;2024-02-16T12:38:36;95049.13;;;12.36;45.38
12219;BME280;6172;42.646;23.344;2024-02-16T12:41:03;95047.22;;;12.33;45.19
12219;BME280;6172;42.646;23.344;2024-02-16T12:43:31;95044.47;;;12.10;45.50
12219;BME280;6172;42.646;23.344;2024-02-16T12:45:58;95042.44;;;12.37;45.01
12219;BME280;6172;42.646;23.344;2024-02-16T12:48:27;95053.25;;;12.44;44.66
12219;BME280;6172;42.646;23.344;2024-02-16T12:50:55;95053.16;;;12.05;45.32
12219;BME280;6172;42.646;23.344;2024-02-16T12:53:23;95045.88;;;12.41;45.24
12219;BME280;6172;42.646;23.344;2024-02-16T12:55:52;95047.16;;;11.61;46.71
12219;BME280;6172;42.646;23.344;2024-02-16T12:58:20;95051.88;;;11.57;47.30
12219;BME280;6172;42.646;23.344;2024-02-16T13:00:48;95049.69;;;11.75;46.58
12219;BME280;6172;42.646;23.344;2024-02-16T13:03:16;95050.44;;;11.75;46.68
12219;BME280;6172;42.646;23.344;2024-02-16T13:05:49;95046.91;;;12.05;46.18